Albion, Washington
Current Conditions -  °F | °C
As of 12:53 AM on Saturday 25 Oct 2014 (Local Time) from KPUW Reporting Station
Clear Clear  
Wind Chill: 42°   Ceiling: Unl
Heat Index: 48°   Visibility: 10mi
Dew Point: 43°   Wind: 14mph
Humidity: 83%   Direction: 110°ESE
Pressure: 29.87"   Gusts: NA
Location:  46.79°N, 117.25°W
Report Text: KPUW 250753Z AUTO 11012KT 10SM CLR 09/06 A2987 RMK AO2 SLP119 T00890061 401220061
Loading
Personal Weather Stations






























Interactive Weather Map
Tropical Storm Tracking
New forecast layout! Learn more

10-Day Weather Forecast

Advertisements
Track Severe Weather on mobile